createdAt,value
2019-04-26T00:04:44.801Z,8.17
2019-04-26T00:09:38.604Z,5.60
2019-04-26T00:14:47.932Z,5.50
2019-04-26T00:19:40.524Z,5.25
2019-04-26T00:24:33.197Z,5.30
2019-04-26T00:29:25.453Z,5.35
2019-04-26T00:34:17.903Z,5.50
2019-04-26T00:39:10.417Z,5.43
2019-04-26T00:44:03.566Z,5.42
2019-04-26T00:48:59.156Z,5.17
2019-04-26T00:53:52.298Z,5.73
2019-04-26T00:58:44.862Z,7.17
2019-04-26T01:03:37.736Z,5.67
2019-04-26T01:08:30.071Z,5.15
2019-04-26T01:13:22.610Z,4.75
2019-04-26T01:18:16.700Z,4.90
2019-04-26T01:23:12.358Z,4.67
2019-04-26T01:28:07.781Z,5.83
2019-04-26T01:33:01.306Z,5.13
2019-04-26T01:37:54.380Z,4.73
2019-04-26T01:42:53.639Z,5.10
2019-04-26T01:47:48.298Z,4.57
2019-04-26T01:52:43.340Z,8.00
2019-04-26T01:57:36.053Z,5.03
2019-04-26T02:02:41.767Z,4.97
2019-04-26T02:07:43.424Z,4.37
2019-04-26T02:12:37.224Z,4.17
2019-04-26T02:17:29.521Z,4.33
2019-04-26T02:22:26.248Z,4.43
2019-04-26T02:27:24.749Z,4.42
2019-04-26T02:32:17.667Z,4.33
2019-04-26T02:37:12.749Z,5.13
2019-04-26T02:42:08.401Z,5.20
2019-04-26T02:47:30.930Z,5.53
2019-04-26T02:52:35.205Z,7.20
2019-04-26T02:57:38.711Z,7.80
2019-04-26T03:02:33.315Z,6.83
2019-04-26T03:07:47.458Z,6.63
2019-04-26T03:12:43.647Z,6.10
2019-04-26T03:17:43.102Z,6.10
2019-04-26T03:22:50.008Z,7.08
2019-04-26T03:27:51.355Z,6.80
2019-04-26T03:33:03.800Z,6.95
2019-04-26T03:38:09.733Z,8.15
2019-04-26T03:43:17.222Z,7.30
2019-04-26T03:48:29.132Z,7.85
2019-04-26T03:53:24.590Z,9.83
2019-04-26T03:58:53.453Z,9.90
2019-04-26T04:03:53.575Z,9.30
2019-04-26T04:09:00.926Z,12.58
2019-04-26T04:13:56.389Z,10.13
2019-04-26T04:19:10.911Z,12.63
2019-04-26T04:24:08.996Z,11.45
2019-04-26T04:29:19.394Z,10.25
2019-04-26T04:34:26.623Z,10.40
2019-04-26T04:39:31.034Z,10.30
2019-04-26T04:44:33.834Z,10.35
2019-04-26T04:49:52.703Z,9.05
2019-04-26T04:55:06.831Z,9.10
2019-04-26T05:00:17.419Z,9.18
2019-04-26T05:05:29.802Z,9.20
2019-04-26T05:10:59.872Z,9.55
2019-04-26T05:16:22.898Z,9.30
2019-04-26T05:21:27.594Z,9.28
2019-04-26T05:26:33.485Z,9.70
2019-04-26T05:31:45.900Z,9.33
2019-04-26T05:37:04.072Z,10.78
2019-04-26T05:42:30.232Z,10.03
2019-04-26T05:47:29.460Z,11.03
2019-04-26T05:52:32.449Z,10.50
2019-04-26T05:57:38.257Z,11.08
2019-04-26T06:02:54.677Z,10.25
2019-04-26T06:08:12.357Z,10.48
2019-04-26T06:13:20.721Z,10.15
2019-04-26T06:18:18.118Z,9.03
2019-04-26T06:23:28.324Z,8.75
2019-04-26T06:28:46.330Z,7.70
2019-04-26T06:33:55.079Z,8.50
2019-04-26T06:39:13.310Z,7.27
2019-04-26T06:44:10.363Z,7.65
2019-04-26T06:49:29.575Z,7.00
2019-04-26T06:54:25.243Z,7.85
2019-04-26T06:59:40.132Z,7.25
2019-04-26T07:04:47.488Z,7.25
2019-04-26T07:09:52.189Z,7.40
2019-04-26T07:15:28.382Z,7.95
2019-04-26T07:20:17.753Z,8.45
2019-04-26T07:25:29.839Z,9.07
2019-04-26T07:30:28.041Z,8.18
2019-04-26T07:35:44.891Z,10.00
2019-04-26T07:40:50.435Z,8.15
2019-04-26T07:46:04.140Z,9.13
2019-04-26T07:51:27.398Z,11.20
2019-04-26T07:56:31.325Z,11.57
2019-04-26T08:01:46.671Z,7.67
2019-04-26T08:06:49.829Z,8.78
2019-04-26T08:11:44.860Z,7.37
2019-04-26T08:16:53.685Z,8.08
2019-04-26T08:21:49.322Z,6.50
2019-04-26T08:26:45.054Z,9.75
2019-04-26T08:31:41.167Z,6.33
2019-04-26T08:36:37.995Z,6.12
2019-04-26T08:41:30.892Z,6.90
2019-04-26T08:46:39.315Z,7.42
2019-04-26T08:51:34.882Z,5.05
2019-04-26T08:56:36.468Z,9.68
2019-04-26T09:01:33.326Z,6.15
2019-04-26T09:06:29.010Z,4.47
2019-04-26T09:11:30.187Z,4.55
2019-04-26T09:16:19.954Z,6.28
2019-04-26T09:21:13.238Z,6.62
2019-04-26T09:26:08.538Z,5.80
2019-04-26T09:31:09.907Z,4.00
2019-04-26T09:36:01.827Z,4.30
2019-04-26T09:40:56.201Z,3.52
2019-04-26T09:46:02.096Z,3.90
2019-04-26T09:50:55.999Z,3.75
2019-04-26T09:55:48.075Z,3.65
2019-04-26T10:00:44.148Z,4.10
2019-04-26T10:05:34.885Z,3.90
2019-04-26T10:10:31.134Z,4.15
2019-04-26T10:15:31.334Z,3.80
2019-04-26T10:20:24.077Z,3.37
2019-04-26T10:25:17.089Z,2.98
2019-04-26T10:30:11.411Z,2.50
2019-04-26T10:35:04.193Z,4.05
2019-04-26T10:39:56.591Z,2.65
2019-04-26T10:44:48.931Z,4.40
2019-04-26T10:49:43.936Z,3.72
2019-04-26T10:54:36.837Z,2.80
2019-04-26T10:59:31.982Z,2.52
2019-04-26T11:04:25.842Z,2.67
2019-04-26T11:09:19.159Z,2.87
2019-04-26T11:14:12.291Z,2.67
2019-04-26T11:19:04.958Z,2.90
2019-04-26T11:23:57.429Z,2.42
2019-04-26T11:28:51.443Z,2.40
2019-04-26T11:33:44.872Z,4.03
2019-04-26T11:38:37.820Z,2.58
2019-04-26T11:43:30.275Z,5.05
2019-04-26T11:48:25.451Z,2.77
2019-04-26T11:53:17.068Z,4.12
2019-04-26T11:58:09.444Z,2.90
2019-04-26T12:03:02.807Z,3.20
2019-04-26T12:07:57.086Z,1.90
2019-04-26T12:12:51.884Z,2.50
2019-04-26T12:17:43.342Z,2.90
2019-04-26T12:22:39.454Z,2.00
2019-04-26T12:27:30.690Z,2.42
2019-04-26T12:32:23.341Z,2.27
2019-04-26T12:37:19.856Z,2.52
2019-04-26T12:42:30.190Z,2.40
2019-04-26T12:47:40.215Z,2.55
2019-04-26T12:52:32.756Z,2.47
2019-04-26T12:57:25.303Z,2.30
2019-04-26T13:02:20.934Z,2.12
2019-04-26T13:07:23.472Z,2.70
2019-04-26T13:12:11.701Z,1.90
2019-04-26T13:17:06.197Z,1.67
2019-04-26T13:21:58.842Z,2.20
2019-04-26T13:26:51.326Z,1.90
2019-04-26T13:31:43.661Z,1.90
2019-04-26T13:36:36.165Z,2.98
2019-04-26T13:41:29.649Z,2.37
2019-04-26T13:46:24.022Z,2.85
2019-04-26T13:51:17.909Z,2.83
2019-04-26T13:56:10.219Z,2.85
2019-04-26T14:01:04.763Z,2.87
2019-04-26T14:05:57.201Z,5.50
2019-04-26T14:10:51.227Z,2.95
2019-04-26T14:15:48.190Z,3.40
2019-04-26T14:20:38.057Z,3.27
2019-04-26T14:25:49.449Z,1.30
2019-04-26T14:30:43.186Z,1.57
2019-04-26T14:35:35.900Z,2.00
2019-04-26T14:40:28.776Z,1.67
2019-04-26T14:45:23.735Z,1.80
2019-04-26T14:50:15.648Z,2.52
2019-04-26T14:55:10.071Z,2.20
2019-04-26T15:00:02.333Z,2.90
2019-04-26T15:05:12.382Z,1.60
2019-04-26T15:10:06.787Z,1.25
2019-04-26T15:15:00.215Z,1.15
2019-04-26T15:19:53.894Z,1.00
2019-04-26T15:24:46.548Z,1.40
2019-04-26T15:29:38.820Z,1.70
2019-04-26T15:34:31.086Z,1.10
2019-04-26T15:39:42.420Z,1.70
2019-04-26T15:44:46.896Z,2.90
2019-04-26T15:49:43.789Z,1.85
2019-04-26T15:54:36.625Z,2.67
2019-04-26T15:59:28.700Z,2.10
2019-04-26T16:04:22.257Z,8.85
2019-04-26T16:09:21.291Z,1.82
2019-04-26T16:14:14.306Z,2.10
2019-04-26T16:19:06.914Z,1.92
2019-04-26T16:23:59.528Z,1.60
2019-04-26T16:29:06.252Z,1.50
2019-04-26T16:34:06.591Z,1.40
2019-04-26T16:38:56.745Z,1.40
2019-04-26T16:43:53.180Z,1.30
2019-04-26T16:48:49.068Z,1.40
2019-04-26T16:53:58.503Z,1.12
2019-04-26T16:58:38.296Z,1.27
2019-04-26T17:03:29.291Z,1.50
2019-04-26T17:08:23.516Z,1.60
2019-04-26T17:13:15.977Z,1.42
2019-04-26T17:18:08.360Z,1.20
2019-04-26T17:23:05.531Z,1.27
2019-04-26T17:28:03.410Z,1.60
2019-04-26T17:32:56.426Z,1.42
2019-04-26T17:37:50.225Z,1.75
2019-04-26T17:42:42.812Z,1.45
2019-04-26T17:47:39.979Z,1.47
2019-04-26T17:52:35.360Z,1.42
2019-04-26T17:57:33.731Z,1.42
2019-04-26T18:02:31.581Z,1.50
2019-04-26T18:07:36.174Z,1.47
2019-04-26T18:12:05.544Z,1.70
2019-04-26T18:17:01.438Z,1.60
2019-04-26T18:21:59.580Z,2.25
2019-04-26T18:26:52.309Z,2.40
2019-04-26T18:31:44.368Z,2.45
2019-04-26T18:36:36.989Z,2.40
2019-04-26T18:41:31.138Z,2.52
2019-04-26T18:46:25.274Z,1.85
2019-04-26T18:51:17.945Z,9.33
2019-04-26T18:56:12.656Z,4.20
2019-04-26T19:01:06.932Z,4.95
2019-04-26T19:06:05.584Z,5.20
2019-04-26T19:11:01.155Z,6.37
2019-04-26T19:15:52.622Z,6.42
2019-04-26T19:20:46.816Z,6.67
2019-04-26T19:25:41.294Z,19.98
2019-04-26T19:30:33.359Z,10.55
2019-04-26T19:35:25.964Z,10.90
2019-04-26T19:40:18.322Z,15.65
2019-04-26T19:45:25.010Z,36.60
2019-04-26T19:50:30.969Z,24.02
2019-04-26T19:55:37.337Z,19.35
2019-04-26T20:00:29.409Z,17.57
2019-04-26T20:05:22.593Z,13.18
2019-04-26T20:10:14.649Z,15.35
2019-04-26T20:15:08.436Z,7.50
2019-04-26T20:20:02.039Z,5.70
2019-04-26T20:24:57.455Z,8.33
2019-04-26T20:29:49.533Z,9.50
2019-04-26T20:34:45.250Z,9.28
2019-04-26T20:39:37.410Z,14.35
2019-04-26T20:44:46.014Z,10.37
2019-04-26T20:49:25.192Z,8.80
2019-04-26T20:54:17.520Z,6.92
2019-04-26T20:59:11.767Z,9.48
2019-04-26T21:04:03.991Z,8.23
2019-04-26T21:08:59.132Z,8.70
2019-04-26T21:13:51.941Z,8.08
2019-04-26T21:18:44.560Z,6.37
2019-04-26T21:23:39.935Z,6.20
2019-04-26T21:28:42.614Z,5.50
2019-04-26T21:33:39.486Z,5.65
2019-04-26T21:38:33.635Z,4.78
2019-04-26T21:43:29.462Z,5.58
2019-04-26T21:48:20.080Z,5.15
2019-04-26T21:53:13.320Z,3.12
2019-04-26T21:58:06.153Z,2.72
2019-04-26T22:02:58.689Z,2.37
2019-04-26T22:07:50.962Z,1.60
2019-04-26T22:12:44.964Z,1.72
2019-04-26T22:17:40.540Z,1.62
2019-04-26T22:22:44.368Z,1.20
2019-04-26T22:27:38.784Z,1.50
2019-04-26T22:32:30.903Z,2.27
2019-04-26T22:37:29.820Z,1.98
2019-04-26T22:42:23.833Z,6.70
2019-04-26T22:47:40.880Z,3.60
2019-04-26T22:52:30.184Z,2.52
2019-04-26T22:57:23.223Z,2.05
2019-04-26T23:02:18.564Z,11.80
2019-04-26T23:07:10.899Z,10.23
2019-04-26T23:12:05.261Z,4.72
2019-04-26T23:17:04.338Z,4.95
2019-04-26T23:21:56.096Z,3.27
2019-04-26T23:26:48.882Z,4.87
2019-04-26T23:31:44.264Z,6.53
2019-04-26T23:36:36.278Z,2.72
2019-04-26T23:41:28.704Z,3.55
2019-04-26T23:46:22.878Z,6.47
2019-04-26T23:51:15.074Z,2.17
2019-04-26T23:56:07.738Z,1.60
